sensor_id;sensor_type;location;lat;lon;timestamp;P1;durP1;ratioP1;P2;durP2;ratioP2
20344;SDS011;10330;48.816;9.278;2023-04-03T00:01:20;3.28;;;1.83;;
20344;SDS011;10330;48.816;9.278;2023-04-03T00:03:46;2.75;;;2.40;;
20344;SDS011;10330;48.816;9.278;2023-04-03T00:06:13;3.25;;;2.50;;
20344;SDS011;10330;48.816;9.278;2023-04-03T00:08:39;2.10;;;1.92;;
20344;SDS011;10330;48.816;9.278;2023-04-03T00:11:12;2.13;;;2.03;;
20344;SDS011;10330;48.816;9.278;2023-04-03T00:13:39;2.03;;;1.92;;
20344;SDS011;10330;48.816;9.278;2023-04-03T00:16:11;2.53;;;2.00;;
20344;SDS011;10330;48.816;9.278;2023-04-03T00:18:38;2.30;;;2.10;;
20344;SDS011;10330;48.816;9.278;2023-04-03T00:21:06;6.15;;;2.33;;
20344;SDS011;10330;48.816;9.278;2023-04-03T00:23:43;4.18;;;2.28;;
20344;SDS011;10330;48.816;9.278;2023-04-03T00:26:09;2.15;;;1.95;;
20344;SDS011;10330;48.816;9.278;2023-04-03T00:28:50;2.83;;;2.00;;
20344;SDS011;10330;48.816;9.278;2023-04-03T00:31:38;2.42;;;2.20;;
20344;SDS011;10330;48.816;9.278;2023-04-03T00:34:56;2.75;;;2.15;;
20344;SDS011;10330;48.816;9.278;2023-04-03T00:37:47;2.47;;;2.28;;
20344;SDS011;10330;48.816;9.278;2023-04-03T00:48:14;2.33;;;1.77;;
20344;SDS011;10330;48.816;9.278;2023-04-03T00:51:21;2.17;;;2.00;;
20344;SDS011;10330;48.816;9.278;2023-04-03T00:54:16;3.22;;;1.80;;
20344;SDS011;10330;48.816;9.278;2023-04-03T00:57:31;1.70;;;1.67;;
20344;SDS011;10330;48.816;9.278;2023-04-03T01:00:17;2.45;;;2.28;;
20344;SDS011;10330;48.816;9.278;2023-04-03T01:05:45;1.90;;;1.70;;
20344;SDS011;10330;48.816;9.278;2023-04-03T01:08:14;3.55;;;1.95;;
20344;SDS011;10330;48.816;9.278;2023-04-03T01:11:05;3.80;;;2.30;;
20344;SDS011;10330;48.816;9.278;2023-04-03T01:14:24;3.45;;;1.98;;
20344;SDS011;10330;48.816;9.278;2023-04-03T01:27:34;3.22;;;2.10;;
20344;SDS011;10330;48.816;9.278;2023-04-03T01:33:21;2.90;;;2.22;;
20344;SDS011;10330;48.816;9.278;2023-04-03T01:36:18;5.50;;;2.33;;
20344;SDS011;10330;48.816;9.278;2023-04-03T01:42:12;4.25;;;2.45;;
20344;SDS011;10330;48.816;9.278;2023-04-03T01:53:10;10.52;;;4.80;;
20344;SDS011;10330;48.816;9.278;2023-04-03T01:59:38;1.83;;;1.73;;
20344;SDS011;10330;48.816;9.278;2023-04-03T02:07:26;5.95;;;2.75;;
20344;SDS011;10330;48.816;9.278;2023-04-03T02:15:00;2.50;;;2.30;;
20344;SDS011;10330;48.816;9.278;2023-04-03T02:18:35;2.00;;;1.90;;
20344;SDS011;10330;48.816;9.278;2023-04-03T02:21:05;3.78;;;1.90;;
20344;SDS011;10330;48.816;9.278;2023-04-03T02:27:35;2.92;;;2.55;;
20344;SDS011;10330;48.816;9.278;2023-04-03T02:34:15;4.43;;;2.42;;
20344;SDS011;10330;48.816;9.278;2023-04-03T02:49:12;2.08;;;1.98;;
20344;SDS011;10330;48.816;9.278;2023-04-03T02:52:40;3.92;;;2.60;;
20344;SDS011;10330;48.816;9.278;2023-04-03T02:55:53;2.85;;;2.40;;
20344;SDS011;10330;48.816;9.278;2023-04-03T02:59:41;4.50;;;2.63;;
20344;SDS011;10330;48.816;9.278;2023-04-03T03:10:02;5.60;;;4.13;;
20344;SDS011;10330;48.816;9.278;2023-04-03T03:34:37;2.00;;;1.88;;
20344;SDS011;10330;48.816;9.278;2023-04-03T03:37:18;3.50;;;2.15;;
20344;SDS011;10330;48.816;9.278;2023-04-03T03:40:33;2.20;;;2.10;;
20344;SDS011;10330;48.816;9.278;2023-04-03T03:43:08;2.10;;;1.92;;
20344;SDS011;10330;48.816;9.278;2023-04-03T03:46:00;2.17;;;2.00;;
20344;SDS011;10330;48.816;9.278;2023-04-03T03:52:11;2.92;;;1.90;;
20344;SDS011;10330;48.816;9.278;2023-04-03T03:55:30;2.13;;;2.03;;
20344;SDS011;10330;48.816;9.278;2023-04-03T04:01:44;2.03;;;1.92;;
20344;SDS011;10330;48.816;9.278;2023-04-03T04:04:21;2.38;;;2.20;;
20344;SDS011;10330;48.816;9.278;2023-04-03T04:33:06;2.20;;;2.10;;
20344;SDS011;10330;48.816;9.278;2023-04-03T04:39:44;2.17;;;2.00;;
20344;SDS011;10330;48.816;9.278;2023-04-03T05:03:24;2.45;;;2.00;;
20344;SDS011;10330;48.816;9.278;2023-04-03T05:06:12;2.85;;;1.92;;
20344;SDS011;10330;48.816;9.278;2023-04-03T05:08:44;1.80;;;1.70;;
20344;SDS011;10330;48.816;9.278;2023-04-03T05:14:44;4.70;;;1.83;;
20344;SDS011;10330;48.816;9.278;2023-04-03T05:17:26;3.90;;;2.63;;
20344;SDS011;10330;48.816;9.278;2023-04-03T05:19:57;3.15;;;2.28;;
20344;SDS011;10330;48.816;9.278;2023-04-03T05:22:58;4.45;;;2.25;;
20344;SDS011;10330;48.816;9.278;2023-04-03T05:28:54;3.50;;;2.20;;
20344;SDS011;10330;48.816;9.278;2023-04-03T05:50:00;2.20;;;2.05;;
20344;SDS011;10330;48.816;9.278;2023-04-03T05:56:57;2.17;;;1.85;;
20344;SDS011;10330;48.816;9.278;2023-04-03T05:59:41;5.00;;;2.17;;
20344;SDS011;10330;48.816;9.278;2023-04-03T06:02:20;3.90;;;1.90;;
20344;SDS011;10330;48.816;9.278;2023-04-03T06:04:58;3.25;;;2.42;;
20344;SDS011;10330;48.816;9.278;2023-04-03T06:11:04;2.47;;;2.10;;
20344;SDS011;10330;48.816;9.278;2023-04-03T06:13:30;2.78;;;1.67;;
20344;SDS011;10330;48.816;9.278;2023-04-03T06:15:57;2.15;;;1.75;;
20344;SDS011;10330;48.816;9.278;2023-04-03T06:18:24;1.88;;;1.77;;
20344;SDS011;10330;48.816;9.278;2023-04-03T06:20:50;3.53;;;2.33;;
20344;SDS011;10330;48.816;9.278;2023-04-03T06:23:16;2.95;;;2.13;;
20344;SDS011;10330;48.816;9.278;2023-04-03T06:25:43;2.28;;;2.10;;
20344;SDS011;10330;48.816;9.278;2023-04-03T06:28:09;4.90;;;1.90;;
20344;SDS011;10330;48.816;9.278;2023-04-03T06:30:36;4.43;;;2.40;;
20344;SDS011;10330;48.816;9.278;2023-04-03T06:33:02;5.63;;;3.72;;
20344;SDS011;10330;48.816;9.278;2023-04-03T06:35:29;6.85;;;4.32;;
20344;SDS011;10330;48.816;9.278;2023-04-03T06:37:56;4.22;;;2.67;;
20344;SDS011;10330;48.816;9.278;2023-04-03T06:40:23;4.75;;;3.63;;
20344;SDS011;10330;48.816;9.278;2023-04-03T06:42:50;3.13;;;1.92;;
20344;SDS011;10330;48.816;9.278;2023-04-03T06:45:18;4.00;;;2.25;;
20344;SDS011;10330;48.816;9.278;2023-04-03T06:47:44;2.03;;;1.92;;
20344;SDS011;10330;48.816;9.278;2023-04-03T06:50:11;5.40;;;1.90;;
20344;SDS011;10330;48.816;9.278;2023-04-03T06:52:39;2.65;;;2.47;;
20344;SDS011;10330;48.816;9.278;2023-04-03T06:55:06;2.30;;;2.10;;
20344;SDS011;10330;48.816;9.278;2023-04-03T06:57:33;2.92;;;2.35;;
20344;SDS011;10330;48.816;9.278;2023-04-03T07:00:00;7.57;;;2.00;;
20344;SDS011;10330;48.816;9.278;2023-04-03T07:02:26;4.45;;;2.42;;
20344;SDS011;10330;48.816;9.278;2023-04-03T07:04:52;7.05;;;2.40;;
20344;SDS011;10330;48.816;9.278;2023-04-03T07:07:18;5.53;;;1.88;;
20344;SDS011;10330;48.816;9.278;2023-04-03T07:09:44;2.13;;;2.03;;
20344;SDS011;10330;48.816;9.278;2023-04-03T07:12:13;2.22;;;2.03;;
20344;SDS011;10330;48.816;9.278;2023-04-03T07:14:39;3.50;;;2.28;;
20344;SDS011;10330;48.816;9.278;2023-04-03T07:17:05;2.42;;;2.20;;
20344;SDS011;10330;48.816;9.278;2023-04-03T07:19:32;3.17;;;1.88;;
20344;SDS011;10330;48.816;9.278;2023-04-03T07:21:58;2.95;;;2.35;;
20344;SDS011;10330;48.816;9.278;2023-04-03T07:24:24;2.60;;;1.95;;
20344;SDS011;10330;48.816;9.278;2023-04-03T07:26:52;2.38;;;1.90;;
20344;SDS011;10330;48.816;9.278;2023-04-03T07:29:29;2.08;;;1.88;;
20344;SDS011;10330;48.816;9.278;2023-04-03T07:31:55;2.03;;;1.92;;
20344;SDS011;10330;48.816;9.278;2023-04-03T07:34:22;1.90;;;1.75;;
20344;SDS011;10330;48.816;9.278;2023-04-03T07:36:48;2.08;;;1.70;;
20344;SDS011;10330;48.816;9.278;2023-04-03T07:39:14;2.95;;;2.63;;
20344;SDS011;10330;48.816;9.278;2023-04-03T07:41:41;3.03;;;2.75;;
20344;SDS011;10330;48.816;9.278;2023-04-03T07:44:07;2.50;;;2.17;;
20344;SDS011;10330;48.816;9.278;2023-04-03T07:46:35;3.58;;;2.15;;
20344;SDS011;10330;48.816;9.278;2023-04-03T07:49:02;15.07;;;2.65;;
20344;SDS011;10330;48.816;9.278;2023-04-03T07:51:28;3.25;;;2.10;;
20344;SDS011;10330;48.816;9.278;2023-04-03T07:53:55;3.55;;;1.60;;
20344;SDS011;10330;48.816;9.278;2023-04-03T07:56:21;5.70;;;3.42;;
20344;SDS011;10330;48.816;9.278;2023-04-03T07:58:48;11.90;;;3.28;;
20344;SDS011;10330;48.816;9.278;2023-04-03T08:01:15;7.85;;;2.10;;
20344;SDS011;10330;48.816;9.278;2023-04-03T08:03:41;2.35;;;2.20;;
20344;SDS011;10330;48.816;9.278;2023-04-03T08:06:08;3.95;;;2.28;;
20344;SDS011;10330;48.816;9.278;2023-04-03T08:08:37;6.32;;;2.25;;
20344;SDS011;10330;48.816;9.278;2023-04-03T08:11:03;5.93;;;2.45;;
20344;SDS011;10330;48.816;9.278;2023-04-03T08:13:31;3.65;;;2.38;;
20344;SDS011;10330;48.816;9.278;2023-04-03T08:16:06;6.15;;;2.33;;
20344;SDS011;10330;48.816;9.278;2023-04-03T08:18:42;11.40;;;2.00;;
20344;SDS011;10330;48.816;9.278;2023-04-03T08:21:09;7.95;;;2.17;;
20344;SDS011;10330;48.816;9.278;2023-04-03T08:23:37;20.95;;;3.35;;
20344;SDS011;10330;48.816;9.278;2023-04-03T08:26:07;5.15;;;2.35;;
20344;SDS011;10330;48.816;9.278;2023-04-03T08:28:38;2.25;;;2.05;;
20344;SDS011;10330;48.816;9.278;2023-04-03T08:31:06;3.85;;;2.40;;
20344;SDS011;10330;48.816;9.278;2023-04-03T08:33:36;3.00;;;2.03;;
20344;SDS011;10330;48.816;9.278;2023-04-03T08:36:04;1.83;;;1.70;;
20344;SDS011;10330;48.816;9.278;2023-04-03T08:38:41;2.30;;;1.77;;
20344;SDS011;10330;48.816;9.278;2023-04-03T08:44:13;1.90;;;1.80;;
20344;SDS011;10330;48.816;9.278;2023-04-03T08:47:06;4.45;;;2.28;;
20344;SDS011;10330;48.816;9.278;2023-04-03T08:53:01;1.95;;;1.77;;
20344;SDS011;10330;48.816;9.278;2023-04-03T08:55:37;6.32;;;2.10;;
20344;SDS011;10330;48.816;9.278;2023-04-03T09:03:29;3.10;;;2.00;;
20344;SDS011;10330;48.816;9.278;2023-04-03T09:05:59;3.80;;;2.00;;
20344;SDS011;10330;48.816;9.278;2023-04-03T09:08:33;10.15;;;1.98;;
20344;SDS011;10330;48.816;9.278;2023-04-03T09:11:16;3.80;;;2.10;;
20344;SDS011;10330;48.816;9.278;2023-04-03T09:13:53;5.57;;;1.67;;
20344;SDS011;10330;48.816;9.278;2023-04-03T09:16:43;11.75;;;2.17;;
20344;SDS011;10330;48.816;9.278;2023-04-03T09:21:47;4.38;;;1.88;;
20344;SDS011;10330;48.816;9.278;2023-04-03T09:24:14;7.80;;;4.40;;
20344;SDS011;10330;48.816;9.278;2023-04-03T09:29:29;4.80;;;1.80;;
20344;SDS011;10330;48.816;9.278;2023-04-03T09:32:00;3.00;;;1.75;;
20344;SDS011;10330;48.816;9.278;2023-04-03T09:34:49;9.35;;;2.13;;
20344;SDS011;10330;48.816;9.278;2023-04-03T09:37:32;1.60;;;1.55;;
20344;SDS011;10330;48.816;9.278;2023-04-03T09:42:57;5.88;;;2.08;;
20344;SDS011;10330;48.816;9.278;2023-04-03T09:45:32;3.58;;;2.10;;
20344;SDS011;10330;48.816;9.278;2023-04-03T09:48:06;2.35;;;1.98;;
20344;SDS011;10330;48.816;9.278;2023-04-03T09:50:35;2.72;;;1.88;;
20344;SDS011;10330;48.816;9.278;2023-04-03T09:53:06;2.88;;;1.60;;
20344;SDS011;10330;48.816;9.278;2023-04-03T09:55:56;4.50;;;1.70;;
20344;SDS011;10330;48.816;9.278;2023-04-03T09:58:33;3.33;;;1.73;;
20344;SDS011;10330;48.816;9.278;2023-04-03T10:01:06;9.50;;;2.38;;
20344;SDS011;10330;48.816;9.278;2023-04-03T10:04:02;5.05;;;2.03;;
20344;SDS011;10330;48.816;9.278;2023-04-03T10:06:40;1.52;;;1.42;;
20344;SDS011;10330;48.816;9.278;2023-04-03T10:09:18;6.45;;;1.58;;
20344;SDS011;10330;48.816;9.278;2023-04-03T10:12:08;2.83;;;1.80;;
20344;SDS011;10330;48.816;9.278;2023-04-03T10:14:59;2.38;;;1.83;;
20344;SDS011;10330;48.816;9.278;2023-04-03T10:17:33;2.17;;;1.42;;
20344;SDS011;10330;48.816;9.278;2023-04-03T10:20:24;3.33;;;2.47;;
20344;SDS011;10330;48.816;9.278;2023-04-03T10:23:24;3.10;;;2.05;;
20344;SDS011;10330;48.816;9.278;2023-04-03T10:34:05;3.63;;;1.75;;
20344;SDS011;10330;48.816;9.278;2023-04-03T10:36:56;3.28;;;1.73;;
20344;SDS011;10330;48.816;9.278;2023-04-03T10:39:43;1.80;;;1.70;;
20344;SDS011;10330;48.816;9.278;2023-04-03T10:42:54;3.67;;;1.60;;
20344;SDS011;10330;48.816;9.278;2023-04-03T10:45:54;6.05;;;1.90;;
20344;SDS011;10330;48.816;9.278;2023-04-03T10:48:32;8.20;;;2.47;;
20344;SDS011;10330;48.816;9.278;2023-04-03T10:54:26;4.75;;;2.03;;
20344;SDS011;10330;48.816;9.278;2023-04-03T10:57:06;3.85;;;1.50;;
20344;SDS011;10330;48.816;9.278;2023-04-03T11:05:02;1.83;;;1.30;;
20344;SDS011;10330;48.816;9.278;2023-04-03T11:07:42;1.50;;;1.40;;
20344;SDS011;10330;48.816;9.278;2023-04-03T11:10:15;1.65;;;1.30;;
20344;SDS011;10330;48.816;9.278;2023-04-03T11:12:51;3.10;;;1.50;;
20344;SDS011;10330;48.816;9.278;2023-04-03T11:15:27;1.70;;;1.13;;
20344;SDS011;10330;48.816;9.278;2023-04-03T11:18:11;4.20;;;1.60;;
20344;SDS011;10330;48.816;9.278;2023-04-03T11:20:42;4.53;;;1.20;;
20344;SDS011;10330;48.816;9.278;2023-04-03T11:23:20;3.45;;;1.48;;
20344;SDS011;10330;48.816;9.278;2023-04-03T11:25:52;1.60;;;1.50;;
20344;SDS011;10330;48.816;9.278;2023-04-03T11:28:23;2.05;;;1.40;;
20344;SDS011;10330;48.816;9.278;2023-04-03T11:33:51;2.53;;;1.58;;
20344;SDS011;10330;48.816;9.278;2023-04-03T11:36:38;5.32;;;1.80;;
20344;SDS011;10330;48.816;9.278;2023-04-03T11:41:47;5.53;;;1.90;;
20344;SDS011;10330;48.816;9.278;2023-04-03T11:44:33;1.65;;;1.55;;
20344;SDS011;10330;48.816;9.278;2023-04-03T11:47:11;4.22;;;1.23;;
20344;SDS011;10330;48.816;9.278;2023-04-03T11:50:02;3.55;;;1.67;;
20344;SDS011;10330;48.816;9.278;2023-04-03T12:00:47;3.45;;;1.70;;
20344;SDS011;10330;48.816;9.278;2023-04-03T12:13:38;2.97;;;1.30;;
20344;SDS011;10330;48.816;9.278;2023-04-03T12:24:25;2.17;;;1.45;;
20344;SDS011;10330;48.816;9.278;2023-04-03T12:30:12;1.15;;;0.95;;
20344;SDS011;10330;48.816;9.278;2023-04-03T12:35:48;3.45;;;1.38;;
20344;SDS011;10330;48.816;9.278;2023-04-03T12:44:08;1.95;;;1.40;;
20344;SDS011;10330;48.816;9.278;2023-04-03T12:46:58;2.08;;;1.77;;
20344;SDS011;10330;48.816;9.278;2023-04-03T12:49:40;2.67;;;1.13;;
20344;SDS011;10330;48.816;9.278;2023-04-03T12:55:07;1.77;;;1.33;;
20344;SDS011;10330;48.816;9.278;2023-04-03T12:57:40;2.45;;;1.33;;
20344;SDS011;10330;48.816;9.278;2023-04-03T13:00:20;1.58;;;1.48;;
20344;SDS011;10330;48.816;9.278;2023-04-03T13:02:47;9.65;;;1.85;;
20344;SDS011;10330;48.816;9.278;2023-04-03T13:05:17;1.60;;;1.50;;
20344;SDS011;10330;48.816;9.278;2023-04-03T13:07:48;1.85;;;1.52;;
20344;SDS011;10330;48.816;9.278;2023-04-03T13:10:26;1.58;;;1.48;;
20344;SDS011;10330;48.816;9.278;2023-04-03T13:12:56;1.75;;;1.65;;
20344;SDS011;10330;48.816;9.278;2023-04-03T13:15:29;1.40;;;1.30;;
20344;SDS011;10330;48.816;9.278;2023-04-03T13:18:05;1.73;;;1.33;;
20344;SDS011;10330;48.816;9.278;2023-04-03T13:20:46;3.58;;;1.58;;
20344;SDS011;10330;48.816;9.278;2023-04-03T13:23:14;4.22;;;1.85;;
20344;SDS011;10330;48.816;9.278;2023-04-03T13:25:56;2.03;;;1.45;;
20344;SDS011;10330;48.816;9.278;2023-04-03T13:28:31;11.60;;;6.40;;
20344;SDS011;10330;48.816;9.278;2023-04-03T13:33:35;3.22;;;1.77;;
20344;SDS011;10330;48.816;9.278;2023-04-03T13:36:19;2.47;;;1.65;;
20344;SDS011;10330;48.816;9.278;2023-04-03T13:39:31;2.10;;;1.27;;
20344;SDS011;10330;48.816;9.278;2023-04-03T13:41:39;1.88;;;1.73;;
20344;SDS011;10330;48.816;9.278;2023-04-03T13:44:15;5.78;;;1.88;;
20344;SDS011;10330;48.816;9.278;2023-04-03T13:46:43;1.58;;;1.48;;
20344;SDS011;10330;48.816;9.278;2023-04-03T13:49:21;6.03;;;1.48;;
20344;SDS011;10330;48.816;9.278;2023-04-03T13:52:03;5.20;;;1.70;;
20344;SDS011;10330;48.816;9.278;2023-04-03T13:54:51;1.77;;;1.35;;
20344;SDS011;10330;48.816;9.278;2023-04-03T13:57:20;3.67;;;1.70;;
20344;SDS011;10330;48.816;9.278;2023-04-03T13:59:46;1.58;;;1.40;;
20344;SDS011;10330;48.816;9.278;2023-04-03T14:02:18;3.72;;;1.50;;
20344;SDS011;10330;48.816;9.278;2023-04-03T14:04:50;7.35;;;1.85;;
20344;SDS011;10330;48.816;9.278;2023-04-03T14:07:23;5.03;;;2.15;;
20344;SDS011;10330;48.816;9.278;2023-04-03T14:09:53;6.97;;;3.42;;
20344;SDS011;10330;48.816;9.278;2023-04-03T14:12:31;2.72;;;2.10;;
20344;SDS011;10330;48.816;9.278;2023-04-03T14:15:04;3.80;;;1.50;;
20344;SDS011;10330;48.816;9.278;2023-04-03T14:17:45;1.67;;;1.45;;
20344;SDS011;10330;48.816;9.278;2023-04-03T14:20:15;1.35;;;1.35;;
20344;SDS011;10330;48.816;9.278;2023-04-03T14:22:43;4.68;;;1.98;;
20344;SDS011;10330;48.816;9.278;2023-04-03T14:25:12;2.90;;;1.70;;
20344;SDS011;10330;48.816;9.278;2023-04-03T14:27:40;3.20;;;1.50;;
20344;SDS011;10330;48.816;9.278;2023-04-03T14:30:17;1.90;;;1.20;;
20344;SDS011;10330;48.816;9.278;2023-04-03T14:32:49;2.38;;;2.17;;
20344;SDS011;10330;48.816;9.278;2023-04-03T14:35:16;4.00;;;1.75;;
20344;SDS011;10330;48.816;9.278;2023-04-03T14:37:44;2.17;;;1.52;;
20344;SDS011;10330;48.816;9.278;2023-04-03T14:40:18;5.25;;;1.40;;
20344;SDS011;10330;48.816;9.278;2023-04-03T14:42:50;2.75;;;1.63;;
20344;SDS011;10330;48.816;9.278;2023-04-03T14:45:17;3.80;;;2.10;;
20344;SDS011;10330;48.816;9.278;2023-04-03T14:47:45;3.60;;;1.80;;
20344;SDS011;10330;48.816;9.278;2023-04-03T14:50:17;1.70;;;1.30;;
20344;SDS011;10330;48.816;9.278;2023-04-03T14:52:46;1.20;;;1.20;;
20344;SDS011;10330;48.816;9.278;2023-04-03T14:55:15;1.63;;;1.52;;
20344;SDS011;10330;48.816;9.278;2023-04-03T14:57:42;4.93;;;2.92;;
20344;SDS011;10330;48.816;9.278;2023-04-03T15:00:13;2.63;;;1.73;;
20344;SDS011;10330;48.816;9.278;2023-04-03T15:02:41;3.42;;;3.03;;
20344;SDS011;10330;48.816;9.278;2023-04-03T15:05:08;2.47;;;1.88;;
20344;SDS011;10330;48.816;9.278;2023-04-03T15:07:54;12.23;;;4.78;;
20344;SDS011;10330;48.816;9.278;2023-04-03T15:10:26;4.00;;;1.67;;
20344;SDS011;10330;48.816;9.278;2023-04-03T15:12:54;4.60;;;2.00;;
20344;SDS011;10330;48.816;9.278;2023-04-03T15:15:21;3.83;;;1.90;;
20344;SDS011;10330;48.816;9.278;2023-04-03T15:17:50;1.40;;;1.30;;
20344;SDS011;10330;48.816;9.278;2023-04-03T15:20:21;1.40;;;1.30;;
20344;SDS011;10330;48.816;9.278;2023-04-03T15:22:49;5.38;;;1.60;;
20344;SDS011;10330;48.816;9.278;2023-04-03T15:25:20;1.40;;;1.30;;
20344;SDS011;10330;48.816;9.278;2023-04-03T15:27:47;3.47;;;1.55;;
20344;SDS011;10330;48.816;9.278;2023-04-03T15:30:16;1.85;;;1.30;;
20344;SDS011;10330;48.816;9.278;2023-04-03T15:32:43;4.93;;;2.20;;
20344;SDS011;10330;48.816;9.278;2023-04-03T15:35:10;5.70;;;2.65;;
20344;SDS011;10330;48.816;9.278;2023-04-03T15:37:37;2.13;;;1.73;;
20344;SDS011;10330;48.816;9.278;2023-04-03T15:40:10;5.38;;;1.80;;
20344;SDS011;10330;48.816;9.278;2023-04-03T15:42:37;2.10;;;1.83;;
20344;SDS011;10330;48.816;9.278;2023-04-03T15:47:48;4.28;;;1.95;;
20344;SDS011;10330;48.816;9.278;2023-04-03T15:50:15;2.97;;;1.90;;
20344;SDS011;10330;48.816;9.278;2023-04-03T15:52:48;1.40;;;1.25;;
20344;SDS011;10330;48.816;9.278;2023-04-03T15:55:35;1.60;;;1.50;;
20344;SDS011;10330;48.816;9.278;2023-04-03T15:58:03;5.88;;;1.23;;
20344;SDS011;10330;48.816;9.278;2023-04-03T16:00:32;4.53;;;1.50;;
20344;SDS011;10330;48.816;9.278;2023-04-03T16:02:59;4.70;;;1.55;;
20344;SDS011;10330;48.816;9.278;2023-04-03T16:05:29;3.28;;;2.13;;
20344;SDS011;10330;48.816;9.278;2023-04-03T16:07:57;2.95;;;2.15;;
20344;SDS011;10330;48.816;9.278;2023-04-03T16:10:25;2.85;;;1.83;;
20344;SDS011;10330;48.816;9.278;2023-04-03T16:12:52;1.88;;;1.73;;
20344;SDS011;10330;48.816;9.278;2023-04-03T16:15:18;1.70;;;1.50;;
20344;SDS011;10330;48.816;9.278;2023-04-03T16:17:44;1.65;;;1.33;;
20344;SDS011;10330;48.816;9.278;2023-04-03T16:20:11;5.82;;;3.20;;
20344;SDS011;10330;48.816;9.278;2023-04-03T16:22:39;4.82;;;2.00;;
20344;SDS011;10330;48.816;9.278;2023-04-03T16:25:06;3.65;;;2.60;;
20344;SDS011;10330;48.816;9.278;2023-04-03T16:27:34;10.77;;;3.92;;
20344;SDS011;10330;48.816;9.278;2023-04-03T16:30:00;2.00;;;1.80;;
20344;SDS011;10330;48.816;9.278;2023-04-03T16:32:27;44.10;;;16.95;;
20344;SDS011;10330;48.816;9.278;2023-04-03T16:34:56;26.25;;;12.95;;
20344;SDS011;10330;48.816;9.278;2023-04-03T16:37:23;8.40;;;4.97;;
20344;SDS011;10330;48.816;9.278;2023-04-03T16:39:49;13.27;;;8.25;;
20344;SDS011;10330;48.816;9.278;2023-04-03T16:42:15;17.35;;;9.13;;
20344;SDS011;10330;48.816;9.278;2023-04-03T16:44:41;4.50;;;3.22;;
20344;SDS011;10330;48.816;9.278;2023-04-03T16:47:08;9.18;;;3.78;;
20344;SDS011;10330;48.816;9.278;2023-04-03T16:49:34;1.80;;;1.70;;
20344;SDS011;10330;48.816;9.278;2023-04-03T16:52:01;2.38;;;1.67;;
20344;SDS011;10330;48.816;9.278;2023-04-03T16:54:28;2.75;;;2.17;;
20344;SDS011;10330;48.816;9.278;2023-04-03T16:56:55;2.42;;;1.80;;
20344;SDS011;10330;48.816;9.278;2023-04-03T16:59:21;1.70;;;1.58;;
20344;SDS011;10330;48.816;9.278;2023-04-03T17:01:48;2.30;;;1.83;;
20344;SDS011;10330;48.816;9.278;2023-04-03T17:04:14;8.38;;;1.65;;
20344;SDS011;10330;48.816;9.278;2023-04-03T17:06:40;3.55;;;1.77;;
20344;SDS011;10330;48.816;9.278;2023-04-03T17:09:07;3.90;;;1.88;;
20344;SDS011;10330;48.816;9.278;2023-04-03T17:11:35;2.95;;;1.92;;
20344;SDS011;10330;48.816;9.278;2023-04-03T17:14:01;2.25;;;1.92;;
20344;SDS011;10330;48.816;9.278;2023-04-03T17:16:28;13.80;;;5.68;;
20344;SDS011;10330;48.816;9.278;2023-04-03T17:18:56;7.13;;;4.18;;
20344;SDS011;10330;48.816;9.278;2023-04-03T17:21:22;11.43;;;4.40;;
20344;SDS011;10330;48.816;9.278;2023-04-03T17:23:50;21.42;;;7.82;;
20344;SDS011;10330;48.816;9.278;2023-04-03T17:26:20;18.50;;;5.38;;
20344;SDS011;10330;48.816;9.278;2023-04-03T17:28:48;7.72;;;2.80;;
20344;SDS011;10330;48.816;9.278;2023-04-03T17:31:15;3.00;;;2.80;;
20344;SDS011;10330;48.816;9.278;2023-04-03T17:33:41;3.83;;;2.20;;
20344;SDS011;10330;48.816;9.278;2023-04-03T17:36:08;3.58;;;2.58;;
20344;SDS011;10330;48.816;9.278;2023-04-03T17:38:34;4.32;;;2.78;;
20344;SDS011;10330;48.816;9.278;2023-04-03T17:41:08;2.35;;;2.05;;
20344;SDS011;10330;48.816;9.278;2023-04-03T17:43:37;11.68;;;3.67;;
20344;SDS011;10330;48.816;9.278;2023-04-03T17:46:05;10.20;;;5.07;;
20344;SDS011;10330;48.816;9.278;2023-04-03T17:48:34;14.10;;;6.88;;
20344;SDS011;10330;48.816;9.278;2023-04-03T17:51:09;14.15;;;8.32;;
20344;SDS011;10330;48.816;9.278;2023-04-03T17:53:37;10.07;;;5.85;;
20344;SDS011;10330;48.816;9.278;2023-04-03T17:56:05;12.50;;;5.47;;
20344;SDS011;10330;48.816;9.278;2023-04-03T17:58:46;32.63;;;14.43;;
20344;SDS011;10330;48.816;9.278;2023-04-03T18:01:16;25.52;;;11.35;;
20344;SDS011;10330;48.816;9.278;2023-04-03T18:03:44;11.55;;;5.35;;
20344;SDS011;10330;48.816;9.278;2023-04-03T18:06:17;21.77;;;9.43;;
20344;SDS011;10330;48.816;9.278;2023-04-03T18:08:52;16.38;;;5.78;;
20344;SDS011;10330;48.816;9.278;2023-04-03T18:12:08;14.85;;;5.13;;
20344;SDS011;10330;48.816;9.278;2023-04-03T18:14:38;4.90;;;2.60;;
20344;SDS011;10330;48.816;9.278;2023-04-03T18:17:06;3.10;;;2.83;;
20344;SDS011;10330;48.816;9.278;2023-04-03T18:19:32;2.63;;;2.30;;
20344;SDS011;10330;48.816;9.278;2023-04-03T18:22:00;7.95;;;4.18;;
20344;SDS011;10330;48.816;9.278;2023-04-03T18:24:39;3.35;;;2.17;;
20344;SDS011;10330;48.816;9.278;2023-04-03T18:27:12;2.55;;;2.17;;
20344;SDS011;10330;48.816;9.278;2023-04-03T18:29:41;3.90;;;2.20;;
20344;SDS011;10330;48.816;9.278;2023-04-03T18:32:10;8.43;;;3.25;;
20344;SDS011;10330;48.816;9.278;2023-04-03T18:34:39;2.90;;;2.05;;
20344;SDS011;10330;48.816;9.278;2023-04-03T18:37:05;4.97;;;1.98;;
20344;SDS011;10330;48.816;9.278;2023-04-03T18:39:31;2.88;;;2.25;;
20344;SDS011;10330;48.816;9.278;2023-04-03T18:41:58;5.43;;;1.85;;
20344;SDS011;10330;48.816;9.278;2023-04-03T18:44:31;2.65;;;2.20;;
20344;SDS011;10330;48.816;9.278;2023-04-03T18:46:58;6.80;;;2.40;;
20344;SDS011;10330;48.816;9.278;2023-04-03T18:49:28;2.10;;;1.90;;
20344;SDS011;10330;48.816;9.278;2023-04-03T18:51:57;2.63;;;1.58;;
20344;SDS011;10330;48.816;9.278;2023-04-03T18:54:23;4.30;;;1.70;;
20344;SDS011;10330;48.816;9.278;2023-04-03T18:56:50;3.28;;;1.58;;
20344;SDS011;10330;48.816;9.278;2023-04-03T18:59:16;2.28;;;1.85;;
20344;SDS011;10330;48.816;9.278;2023-04-03T19:01:42;3.20;;;1.98;;
20344;SDS011;10330;48.816;9.278;2023-04-03T19:04:08;2.10;;;1.80;;
20344;SDS011;10330;48.816;9.278;2023-04-03T19:06:35;3.88;;;2.58;;
20344;SDS011;10330;48.816;9.278;2023-04-03T19:09:03;3.15;;;2.05;;
20344;SDS011;10330;48.816;9.278;2023-04-03T19:11:32;1.73;;;1.40;;
20344;SDS011;10330;48.816;9.278;2023-04-03T19:13:59;6.53;;;2.10;;
20344;SDS011;10330;48.816;9.278;2023-04-03T19:16:25;5.18;;;2.15;;
20344;SDS011;10330;48.816;9.278;2023-04-03T19:18:52;3.83;;;1.90;;
20344;SDS011;10330;48.816;9.278;2023-04-03T19:21:18;6.18;;;2.30;;
20344;SDS011;10330;48.816;9.278;2023-04-03T19:23:45;6.47;;;3.58;;
20344;SDS011;10330;48.816;9.278;2023-04-03T19:26:13;5.07;;;2.90;;
20344;SDS011;10330;48.816;9.278;2023-04-03T19:28:39;10.80;;;3.47;;
20344;SDS011;10330;48.816;9.278;2023-04-03T19:31:13;9.32;;;2.88;;
20344;SDS011;10330;48.816;9.278;2023-04-03T19:33:41;5.47;;;3.25;;
20344;SDS011;10330;48.816;9.278;2023-04-03T19:36:08;7.07;;;2.85;;
20344;SDS011;10330;48.816;9.278;2023-04-03T19:38:36;11.18;;;5.75;;
20344;SDS011;10330;48.816;9.278;2023-04-03T19:41:06;4.32;;;2.60;;
20344;SDS011;10330;48.816;9.278;2023-04-03T19:43:36;2.92;;;1.75;;
20344;SDS011;10330;48.816;9.278;2023-04-03T19:46:03;12.07;;;5.07;;
20344;SDS011;10330;48.816;9.278;2023-04-03T19:48:30;7.57;;;3.95;;
20344;SDS011;10330;48.816;9.278;2023-04-03T19:50:56;14.20;;;2.90;;
20344;SDS011;10330;48.816;9.278;2023-04-03T19:53:23;4.22;;;3.78;;
20344;SDS011;10330;48.816;9.278;2023-04-03T19:55:53;6.80;;;3.83;;
20344;SDS011;10330;48.816;9.278;2023-04-03T19:58:23;8.00;;;4.72;;
20344;SDS011;10330;48.816;9.278;2023-04-03T20:00:52;9.07;;;3.92;;
20344;SDS011;10330;48.816;9.278;2023-04-03T20:03:18;4.78;;;2.60;;
20344;SDS011;10330;48.816;9.278;2023-04-03T20:05:44;13.02;;;5.50;;